Time;durP1;ratioP1;P1;durP2;ratioP2;P2;SDS_P1;SDS_P2;PMS_P1;PMS_P2;Temp;Humidity;BMP_temperature;BMP_pressure;BME280_temperature;BME280_humidity;BME280_pressure;Samples;Min_cycle;Max_cycle;Signal;HPM_P1;HPM_P2
2023/09/06 00:00:26;;;;;;;4.63;4.10;;;;;;;17.60;59.94;96003.59;5018789;28;20182;-81
2023/09/06 00:02:51;;;;;;;4.13;3.65;;;;;;;17.53;60.36;95998.22;5036046;28;20209;-80
2023/09/06 00:05:17;;;;;;;4.68;3.85;;;;;;;17.52;59.86;96006.28;5029043;28;20178;-81
2023/09/06 00:07:44;;;;;;;6.10;4.28;;;;;;;17.49;59.75;96014.50;5039117;28;20185;-81
2023/09/06 00:10:10;;;;;;;4.90;3.92;;;;;;;17.45;60.24;96008.00;5045626;28;20260;-80
2023/09/06 00:12:35;;;;;;;7.80;3.97;;;;;;;17.43;60.69;96018.69;5029258;28;20306;-80
2023/09/06 00:15:00;;;;;;;5.30;3.90;;;;;;;17.39;60.70;96022.63;5041724;28;20372;-80
2023/09/06 00:17:26;;;;;;;4.47;3.88;;;;;;;17.29;60.71;96016.81;5023685;28;20186;-80
2023/09/06 00:19:51;;;;;;;6.38;4.47;;;;;;;17.25;60.98;96005.88;5046137;28;20194;-80
2023/09/06 00:22:18;;;;;;;6.40;4.00;;;;;;;17.27;60.98;96008.31;5049196;28;20213;-80
2023/09/06 00:24:43;;;;;;;5.30;4.18;;;;;;;17.18;60.89;96004.94;5018919;28;20194;-81
2023/09/06 00:27:08;;;;;;;4.80;4.03;;;;;;;17.18;61.04;95997.06;5045786;28;20190;-81
2023/09/06 00:29:34;;;;;;;6.30;3.97;;;;;;;17.16;61.11;96000.88;5027023;28;20300;-81
2023/09/06 00:31:59;;;;;;;3.88;3.53;;;;;;;17.08;61.13;95999.13;5028406;28;20210;-80
2023/09/06 00:34:24;;;;;;;6.63;3.97;;;;;;;16.96;61.30;95992.66;5033409;28;20232;-80
2023/09/06 00:36:50;;;;;;;5.03;3.67;;;;;;;16.97;61.00;95984.63;5046052;28;20236;-80
2023/09/06 00:39:15;;;;;;;4.95;4.43;;;;;;;16.98;61.34;95983.63;5033663;28;20235;-80
2023/09/06 00:41:41;;;;;;;5.95;4.03;;;;;;;16.96;61.34;95987.41;5022996;28;20211;-80
2023/09/06 00:44:08;;;;;;;5.10;3.92;;;;;;;17.00;60.97;95986.09;5022085;28;20567;-81
2023/09/06 00:46:34;;;;;;;5.95;4.13;;;;;;;16.90;61.41;95986.31;5019183;28;20189;-80
2023/09/06 00:49:00;;;;;;;5.72;5.00;;;;;;;16.94;61.11;95990.22;5038415;28;20207;-80
2023/09/06 00:51:25;;;;;;;7.00;4.40;;;;;;;16.91;61.11;95985.34;5025128;28;20182;-80
2023/09/06 00:53:51;;;;;;;4.35;3.85;;;;;;;16.95;60.63;95991.03;5029095;28;20186;-80
2023/09/06 00:56:17;;;;;;;5.88;4.20;;;;;;;16.96;60.45;95988.25;5046046;28;20217;-82
2023/09/06 00:58:43;;;;;;;4.97;4.47;;;;;;;16.89;60.46;95989.94;5036137;28;20721;-80
2023/09/06 01:01:08;;;;;;;5.63;4.50;;;;;;;16.90;60.39;95988.94;5033229;28;20191;-81
2023/09/06 01:03:34;;;;;;;6.57;4.35;;;;;;;16.94;60.40;95994.66;5028362;28;20280;-80
2023/09/06 01:06:14;;;;;;;5.90;4.30;;;;;;;16.93;60.05;95987.78;5042390;28;20677;-80
2023/09/06 01:08:42;;;;;;;5.20;4.18;;;;;;;16.92;60.18;95986.97;5028023;28;20182;-80
2023/09/06 01:11:19;;;;;;;5.68;4.20;;;;;;;16.86;60.61;95986.84;5019481;28;20273;-82
2023/09/06 01:13:46;;;;;;;5.22;4.18;;;;;;;16.84;60.43;95988.84;5030891;28;20181;-80
2023/09/06 01:16:13;;;;;;;5.65;4.28;;;;;;;16.81;60.29;95984.75;5028626;28;20189;-80
2023/09/06 01:18:38;;;;;;;5.28;4.22;;;;;;;16.78;60.35;95989.53;5026445;28;20659;-80
2023/09/06 01:21:10;;;;;;;5.70;4.22;;;;;;;16.75;60.39;95982.00;5042207;28;20201;-79
2023/09/06 01:23:38;;;;;;;8.25;4.28;;;;;;;16.75;60.31;95974.97;5035758;28;20209;-80
2023/09/06 01:26:03;;;;;;;5.65;3.95;;;;;;;16.77;60.19;95972.16;5020629;28;20662;-79
2023/09/06 01:28:29;;;;;;;6.15;4.22;;;;;;;16.80;59.86;95977.88;5040862;28;20194;-81
2023/09/06 01:30:55;;;;;;;8.20;4.20;;;;;;;16.79;59.92;95975.44;5026891;28;20341;-80
2023/09/06 01:33:22;;;;;;;7.57;4.68;;;;;;;16.77;60.22;95970.34;5029945;28;20304;-80
2023/09/06 01:35:48;;;;;;;4.40;3.78;;;;;;;16.73;59.91;95963.03;5049066;28;20265;-79
2023/09/06 01:38:15;;;;;;;4.88;3.80;;;;;;;16.71;60.18;95955.34;5041546;28;20181;-81
2023/09/06 01:40:40;;;;;;;5.03;4.20;;;;;;;16.57;60.68;95963.91;5040919;28;20186;-80
2023/09/06 01:43:08;;;;;;;4.95;4.43;;;;;;;16.60;60.67;95961.75;5021869;28;20214;-80
2023/09/06 01:45:35;;;;;;;5.25;3.97;;;;;;;16.58;60.39;95958.50;5030944;28;20182;-81
2023/09/06 01:48:04;;;;;;;6.13;4.28;;;;;;;16.57;60.17;95962.09;5035043;28;20186;-80
2023/09/06 01:50:29;;;;;;;5.40;3.88;;;;;;;16.61;60.18;95960.78;5039664;28;20174;-81
2023/09/06 01:52:57;;;;;;;5.85;4.38;;;;;;;16.64;59.85;95955.19;5037986;28;20263;-80
2023/09/06 01:55:23;;;;;;;5.45;4.07;;;;;;;16.64;60.06;95963.03;5043397;28;20643;-81
2023/09/06 01:57:48;;;;;;;5.78;4.22;;;;;;;16.61;60.03;95968.66;5031500;28;20194;-81
2023/09/06 02:00:28;;;;;;;4.95;3.90;;;;;;;16.60;60.60;95969.63;5060107;28;20197;-83
2023/09/06 02:02:57;;;;;;;5.05;4.00;;;;;;;16.58;60.47;95966.34;5064039;28;20225;-83
2023/09/06 02:05:23;;;;;;;5.25;4.32;;;;;;;16.53;60.56;95970.50;5063575;28;20182;-83
2023/09/06 02:07:48;;;;;;;6.47;4.25;;;;;;;16.41;60.90;95965.66;5062281;28;20197;-84
2023/09/06 02:10:13;;;;;;;4.50;3.63;;;;;;;16.41;60.77;95964.84;5050295;28;20243;-82
2023/09/06 02:12:39;;;;;;;5.97;4.32;;;;;;;16.42;60.83;95966.47;5051328;28;20214;-82
2023/09/06 02:15:05;;;;;;;4.88;4.15;;;;;;;16.38;60.48;95963.38;5030715;28;20561;-81
2023/09/06 02:17:31;;;;;;;4.50;4.10;;;;;;;16.38;61.02;95965.19;5043779;28;20671;-80
2023/09/06 02:19:57;;;;;;;4.82;4.03;;;;;;;16.45;60.65;95968.75;5045631;28;20181;-81
2023/09/06 02:22:22;;;;;;;5.05;4.00;;;;;;;16.40;60.70;95961.41;5030908;28;20228;-81
2023/09/06 02:24:47;;;;;;;5.30;4.18;;;;;;;16.37;61.10;95967.00;5033551;28;20190;-80
2023/09/06 02:27:13;;;;;;;4.93;4.40;;;;;;;16.29;60.94;95958.38;5036513;28;20212;-81
2023/09/06 02:29:40;;;;;;;5.70;4.32;;;;;;;16.25;61.21;95962.31;5043949;28;20658;-81
2023/09/06 02:32:05;;;;;;;5.22;4.28;;;;;;;16.21;61.41;95961.84;5027871;28;20705;-80
2023/09/06 02:34:30;;;;;;;6.60;4.10;;;;;;;16.20;61.89;95968.06;5048926;28;20185;-82
2023/09/06 02:36:56;;;;;;;4.38;3.97;;;;;;;16.18;61.84;95962.19;5032525;28;20190;-81
2023/09/06 02:39:22;;;;;;;6.25;4.53;;;;;;;16.19;61.73;95960.38;5029093;28;20192;-80
2023/09/06 02:41:47;;;;;;;5.05;4.15;;;;;;;16.15;61.65;95957.28;5025100;28;20236;-80
2023/09/06 02:44:12;;;;;;;5.72;4.72;;;;;;;16.15;62.18;95965.94;5037550;28;20671;-82
2023/09/06 02:46:38;;;;;;;5.80;4.45;;;;;;;16.13;62.23;95957.47;5031397;28;20239;-80
2023/09/06 02:49:11;;;;;;;5.00;4.35;;;;;;;16.17;62.10;95963.19;5038422;28;20526;-80
2023/09/06 02:51:43;;;;;;;5.15;4.28;;;;;;;16.15;62.13;95963.34;5024359;28;20250;-83
2023/09/06 02:54:09;;;;;;;6.25;4.28;;;;;;;16.15;62.33;95965.13;5048340;28;20178;-81
2023/09/06 02:56:37;;;;;;;8.82;4.47;;;;;;;16.08;62.41;95965.03;5041024;28;20589;-81
2023/09/06 02:59:12;;;;;;;7.03;3.83;;;;;;;16.10;63.08;95970.09;5022869;28;20269;-83
2023/09/06 03:01:44;;;;;;;7.32;4.25;;;;;;;16.04;63.04;95966.34;5023577;28;20281;-82
2023/09/06 03:04:10;;;;;;;5.03;4.43;;;;;;;16.00;63.03;95967.69;5025851;28;20292;-81
2023/09/06 03:06:37;;;;;;;7.18;4.60;;;;;;;15.96;63.35;95960.31;5041131;28;20278;-82
2023/09/06 03:09:06;;;;;;;7.30;4.45;;;;;;;15.98;63.49;95967.03;5022381;28;20559;-81
2023/09/06 03:11:32;;;;;;;6.40;4.10;;;;;;;15.90;63.64;95964.44;5038841;28;20285;-81
2023/09/06 03:13:58;;;;;;;5.05;4.47;;;;;;;15.95;63.60;95967.38;5036664;28;20263;-83
2023/09/06 03:16:23;;;;;;;6.22;4.32;;;;;;;15.93;63.46;95966.72;5031743;28;20183;-82
2023/09/06 03:18:54;;;;;;;7.55;4.50;;;;;;;15.93;63.13;95965.91;5038529;28;20186;-82
2023/09/06 03:21:19;;;;;;;5.53;4.57;;;;;;;15.97;63.32;95964.56;5026349;28;20681;-82
2023/09/06 03:23:49;;;;;;;4.97;4.22;;;;;;;15.97;63.33;95965.38;5014650;28;20226;-81
2023/09/06 03:26:14;;;;;;;4.97;4.47;;;;;;;15.95;63.71;95967.38;5034823;28;20179;-81
2023/09/06 03:28:42;;;;;;;5.78;4.50;;;;;;;15.91;63.76;95967.91;5041502;28;20598;-83
2023/09/06 03:31:12;;;;;;;5.13;4.63;;;;;;;15.92;63.73;95967.72;5025468;28;20205;-79
2023/09/06 03:33:41;;;;;;;5.53;4.10;;;;;;;15.82;64.06;95964.50;5039323;28;20643;-81
2023/09/06 03:36:08;;;;;;;5.93;4.57;;;;;;;15.83;64.37;95966.13;5019477;28;20216;-81
2023/09/06 03:38:34;;;;;;;6.40;4.85;;;;;;;15.77;64.25;95969.41;5041367;28;20192;-82
2023/09/06 03:41:02;;;;;;;4.97;4.32;;;;;;;15.74;64.32;95967.13;5044346;28;20189;-81
2023/09/06 03:43:32;;;;;;;5.05;4.45;;;;;;;15.74;64.17;95973.19;5028849;28;20731;-82
2023/09/06 03:45:58;;;;;;;6.15;4.57;;;;;;;15.73;64.45;95962.91;5049200;28;20236;-81
2023/09/06 03:48:27;;;;;;;6.05;4.63;;;;;;;15.74;64.72;95961.91;5027726;28;20205;-81
2023/09/06 03:50:55;;;;;;;8.15;4.43;;;;;;;15.78;64.39;95963.19;5041367;28;20562;-82
2023/09/06 03:53:21;;;;;;;5.93;4.63;;;;;;;15.74;64.40;95957.47;5030318;28;20203;-81
2023/09/06 03:55:47;;;;;;;6.82;4.57;;;;;;;15.72;64.51;95956.81;5031879;28;20254;-81
2023/09/06 03:58:12;;;;;;;4.85;4.45;;;;;;;15.66;64.52;95961.94;5040893;28;20659;-82
2023/09/06 04:00:44;;;;;;;6.50;4.72;;;;;;;15.65;64.67;95963.72;5029776;28;20223;-82
2023/09/06 04:03:14;;;;;;;6.22;4.55;;;;;;;15.61;64.39;95951.94;5049603;28;20293;-81
2023/09/06 04:05:40;;;;;;;5.38;4.45;;;;;;;15.63;64.44;95955.22;5032097;28;20272;-81
2023/09/06 04:08:09;;;;;;;6.97;4.60;;;;;;;15.55;64.57;95955.22;5026236;28;20174;-83
2023/09/06 04:10:38;;;;;;;6.07;5.00;;;;;;;15.52;64.72;95960.78;5043295;28;20237;-81
2023/09/06 04:13:08;;;;;;;6.47;4.60;;;;;;;15.48;64.80;95965.53;5023722;28;20198;-81
2023/09/06 04:15:37;;;;;;;7.97;5.13;;;;;;;15.46;64.86;95964.91;5038057;28;20178;-81
2023/09/06 04:18:04;;;;;;;8.65;5.05;;;;;;;15.45;65.27;95968.47;5040146;28;20206;-81
2023/09/06 04:20:32;;;;;;;4.85;4.30;;;;;;;15.45;65.15;95963.25;5029628;28;20217;-82
2023/09/06 04:23:05;;;;;;;5.25;4.05;;;;;;;15.45;65.36;95971.09;5039666;28;20209;-81
2023/09/06 04:25:36;;;;;;;5.82;4.90;;;;;;;15.45;65.21;95959.81;5018637;28;20232;-81
2023/09/06 04:28:07;;;;;;;5.53;4.53;;;;;;;15.46;65.31;95969.28;5038235;28;20233;-80
2023/09/06 04:30:36;;;;;;;6.20;4.85;;;;;;;15.42;65.41;95960.16;5043318;28;20217;-80
2023/09/06 04:33:03;;;;;;;6.78;4.93;;;;;;;15.40;65.27;95960.34;5041969;28;20194;-81
2023/09/06 04:35:33;;;;;;;5.53;4.72;;;;;;;15.43;65.26;95962.59;5019481;28;20682;-81
2023/09/06 04:37:59;;;;;;;6.43;5.13;;;;;;;15.35;66.06;95964.41;5038685;28;20185;-81
2023/09/06 04:40:24;;;;;;;5.82;4.70;;;;;;;15.32;65.48;95960.34;5043562;28;20582;-84
2023/09/06 04:42:49;;;;;;;7.10;4.50;;;;;;;15.37;65.69;95965.06;5033030;28;20208;-85
2023/09/06 04:45:15;;;;;;;6.00;4.93;;;;;;;15.35;65.60;95965.22;5042411;28;20247;-83
2023/09/06 04:47:42;;;;;;;7.70;6.03;;;;;;;15.41;65.47;95972.44;5046690;28;20712;-87
2023/09/06 04:50:08;;;;;;;6.03;4.85;;;;;;;15.32;66.00;95964.75;5034854;28;20174;-84
2023/09/06 04:52:42;;;;;;;7.65;5.40;;;;;;;15.34;66.11;95962.78;5023387;28;20264;-82
2023/09/06 04:55:08;;;;;;;6.93;5.35;;;;;;;15.32;66.37;95965.56;5048843;28;20192;-82
2023/09/06 04:57:34;;;;;;;8.48;4.95;;;;;;;15.33;66.45;95963.78;5037829;28;20186;-82
2023/09/06 05:00:00;;;;;;;6.88;5.20;;;;;;;15.32;66.52;95968.19;5020375;28;20721;-82
2023/09/06 05:02:25;;;;;;;7.13;5.47;;;;;;;15.34;66.52;95976.69;5036973;28;20614;-82
2023/09/06 05:04:52;;;;;;;5.90;5.00;;;;;;;15.41;66.30;95975.03;5022008;28;20372;-83
2023/09/06 05:07:17;;;;;;;7.53;5.32;;;;;;;15.39;66.46;95974.41;5046924;28;20186;-82
2023/09/06 05:09:43;;;;;;;6.50;5.53;;;;;;;15.51;66.11;95985.31;5021695;28;20204;-82
2023/09/06 05:12:08;;;;;;;6.47;5.10;;;;;;;15.56;65.98;95972.56;5031159;28;20203;-82
2023/09/06 05:14:34;;;;;;;5.75;4.82;;;;;;;15.56;66.18;95978.63;5035654;28;20679;-82
2023/09/06 05:16:59;;;;;;;7.03;5.00;;;;;;;15.57;66.09;95980.25;5039456;28;20190;-82
2023/09/06 05:19:27;;;;;;;5.68;5.05;;;;;;;15.60;66.09;95986.94;5042988;28;20251;-82
2023/09/06 05:21:56;;;;;;;6.85;4.90;;;;;;;15.69;65.95;95983.34;5044573;28;20205;-81
2023/09/06 05:24:21;;;;;;;6.75;5.22;;;;;;;15.72;65.73;95987.41;5033347;28;20213;-80
2023/09/06 05:26:46;;;;;;;5.72;4.90;;;;;;;15.79;65.88;95989.19;5030348;28;20190;-81
2023/09/06 05:29:14;;;;;;;7.95;5.03;;;;;;;15.90;65.42;95990.63;5042480;28;20221;-81
2023/09/06 05:31:40;;;;;;;7.72;5.53;;;;;;;15.89;65.17;95989.00;5039848;28;20268;-81
2023/09/06 05:34:05;;;;;;;6.18;4.75;;;;;;;15.93;65.36;95995.53;5017761;28;20659;-80
2023/09/06 05:36:30;;;;;;;7.50;4.72;;;;;;;15.95;65.14;95996.19;5031840;28;20182;-80
2023/09/06 05:38:56;;;;;;;6.20;4.50;;;;;;;16.02;65.25;95986.66;5034811;28;20193;-81
2023/09/06 05:41:21;;;;;;;8.55;4.95;;;;;;;16.12;64.75;95987.25;5038960;28;20198;-81
2023/09/06 05:43:46;;;;;;;6.13;5.53;;;;;;;16.23;64.28;95993.09;5043449;28;20927;-81
2023/09/06 05:46:11;;;;;;;5.50;5.00;;;;;;;16.28;64.62;95996.03;5046738;28;20650;-80
2023/09/06 05:48:37;;;;;;;6.57;4.70;;;;;;;16.33;64.25;95998.94;5049591;28;20212;-81
2023/09/06 05:51:02;;;;;;;5.90;4.30;;;;;;;16.39;64.02;95998.28;5028859;28;20228;-80
2023/09/06 05:53:29;;;;;;;5.13;4.18;;;;;;;16.57;63.86;96001.44;5041968;28;20215;-80
2023/09/06 05:55:57;;;;;;;6.03;4.68;;;;;;;16.60;63.01;95998.44;5021284;28;20182;-80
2023/09/06 05:58:22;;;;;;;6.53;5.03;;;;;;;16.65;62.95;96005.81;5033815;28;20181;-81
2023/09/06 06:00:49;;;;;;;4.57;4.13;;;;;;;16.76;62.71;96000.19;5031135;28;20232;-80
2023/09/06 06:03:14;;;;;;;7.35;5.30;;;;;;;16.72;62.77;95995.50;5031366;28;20205;-80
2023/09/06 06:05:39;;;;;;;5.43;4.70;;;;;;;16.75;62.32;95995.13;5039719;28;20265;-81
2023/09/06 06:08:05;;;;;;;4.90;4.18;;;;;;;16.86;62.31;96002.56;5021627;28;20190;-81
2023/09/06 06:10:34;;;;;;;4.95;4.47;;;;;;;16.96;61.95;95990.88;5016595;28;20213;-81
2023/09/06 06:12:59;;;;;;;4.90;4.40;;;;;;;17.03;61.95;95995.41;5031256;28;20285;-81
2023/09/06 06:15:25;;;;;;;5.45;4.70;;;;;;;17.24;61.08;95993.75;5035537;28;20618;-79
2023/09/06 06:17:51;;;;;;;4.53;3.72;;;;;;;17.41;60.89;95989.16;5023491;28;20198;-81
2023/09/06 06:20:17;;;;;;;4.13;3.75;;;;;;;17.40;60.93;95994.56;5043104;28;20677;-80
2023/09/06 06:22:43;;;;;;;5.13;4.50;;;;;;;17.50;60.83;95990.72;5046831;28;20256;-80
2023/09/06 06:25:10;;;;;;;5.55;3.95;;;;;;;17.64;60.29;95991.72;5032320;28;20241;-80
2023/09/06 06:27:36;;;;;;;5.07;4.20;;;;;;;17.76;60.26;95998.19;5045376;28;20201;-81
2023/09/06 06:30:01;;;;;;;5.10;4.40;;;;;;;17.79;60.54;95995.19;5024296;28;20194;-80
2023/09/06 06:32:27;;;;;;;4.97;4.40;;;;;;;17.91;60.11;95992.91;5036028;28;20201;-79
2023/09/06 06:34:54;;;;;;;5.10;4.60;;;;;;;17.94;60.53;96002.28;5016791;28;20182;-79
2023/09/06 06:37:20;;;;;;;6.05;4.70;;;;;;;17.94;60.53;95997.81;5031972;28;20210;-81
2023/09/06 06:39:46;;;;;;;5.20;4.35;;;;;;;18.13;60.36;96006.16;5019063;28;20193;-80
2023/09/06 06:42:11;;;;;;;4.88;4.40;;;;;;;18.24;59.73;96006.47;5022276;28;20209;-81
2023/09/06 06:44:36;;;;;;;5.35;4.50;;;;;;;18.34;60.15;96009.63;5027420;28;20201;-81
2023/09/06 06:47:04;;;;;;;5.55;4.80;;;;;;;18.38;59.65;96004.84;5031035;28;20209;-80
2023/09/06 06:49:29;;;;;;;5.45;4.20;;;;;;;18.46;59.74;96011.78;5031902;28;20190;-80
2023/09/06 06:51:55;;;;;;;7.90;4.53;;;;;;;18.53;59.36;96015.31;5043336;28;20630;-79
2023/09/06 06:54:21;;;;;;;4.53;4.07;;;;;;;18.70;59.87;96014.09;5040811;28;20182;-80
2023/09/06 06:56:46;;;;;;;7.13;4.32;;;;;;;18.67;60.23;96017.94;5036376;28;20213;-80
2023/09/06 06:59:12;;;;;;;4.97;4.00;;;;;;;18.67;59.93;96017.13;5015747;28;20221;-81
2023/09/06 07:01:37;;;;;;;6.88;4.70;;;;;;;18.73;59.86;96013.75;5031214;28;20586;-81
2023/09/06 07:04:04;;;;;;;7.85;4.43;;;;;;;18.88;59.61;96011.84;5019304;28;20206;-80
2023/09/06 07:06:30;;;;;;;5.78;4.53;;;;;;;18.98;59.22;96014.19;5027665;28;20240;-80
2023/09/06 07:08:56;;;;;;;4.07;3.78;;;;;;;19.10;59.38;96009.25;5048612;28;20624;-80
2023/09/06 07:11:22;;;;;;;9.02;4.25;;;;;;;19.16;59.10;96008.47;5051623;28;20182;-80
2023/09/06 07:13:49;;;;;;;9.73;4.55;;;;;;;19.15;58.92;96015.53;5035167;28;20178;-80
2023/09/06 07:16:16;;;;;;;6.20;4.47;;;;;;;19.14;58.65;96013.09;5049167;28;20182;-82
2023/09/06 07:18:42;;;;;;;4.70;4.07;;;;;;;19.35;58.58;96010.47;5028751;28;20208;-81
2023/09/06 07:21:07;;;;;;;4.50;4.10;;;;;;;19.40;58.01;96015.16;5040754;28;20659;-80
2023/09/06 07:23:32;;;;;;;5.47;4.55;;;;;;;19.57;57.97;96021.78;5020643;28;20217;-81
2023/09/06 07:25:58;;;;;;;6.50;4.07;;;;;;;19.60;58.05;96018.75;5046243;28;20201;-81
2023/09/06 07:28:23;;;;;;;4.90;4.40;;;;;;;19.74;57.53;96025.75;5032586;28;20248;-81
2023/09/06 07:30:49;;;;;;;4.65;3.72;;;;;;;19.89;56.96;96025.66;5045368;28;20178;-82
2023/09/06 07:33:14;;;;;;;4.80;4.30;;;;;;;20.04;57.51;96025.53;5045206;28;20193;-82
2023/09/06 07:35:42;;;;;;;5.47;4.32;;;;;;;20.05;56.32;96035.91;5047334;28;20192;-81
2023/09/06 07:38:08;;;;;;;5.15;4.32;;;;;;;20.13;56.24;96032.25;5018766;28;20178;-82
2023/09/06 07:40:34;;;;;;;4.95;4.32;;;;;;;20.14;56.07;96033.88;5042770;28;20620;-82
2023/09/06 07:42:59;;;;;;;7.93;4.07;;;;;;;20.31;56.04;96037.00;5040241;28;20202;-82
2023/09/06 07:45:24;;;;;;;4.57;4.18;;;;;;;20.46;55.80;96031.63;5037634;28;20193;-82
2023/09/06 07:47:51;;;;;;;4.68;4.18;;;;;;;20.58;55.95;96037.97;5023338;28;20337;-82
2023/09/06 07:50:16;;;;;;;4.53;3.92;;;;;;;20.67;56.00;96038.59;5024972;28;20181;-82
2023/09/06 07:52:41;;;;;;;5.15;4.28;;;;;;;20.70;54.85;96038.22;5045240;28;20904;-80
2023/09/06 07:55:07;;;;;;;5.00;4.50;;;;;;;20.69;56.79;96037.41;5028213;28;20198;-80
2023/09/06 07:57:33;;;;;;;4.72;4.03;;;;;;;20.87;56.42;96039.47;5047857;28;20181;-80
2023/09/06 07:59:58;;;;;;;4.65;3.88;;;;;;;20.92;56.42;96037.03;5052205;28;20200;-80
2023/09/06 08:02:24;;;;;;;4.57;3.83;;;;;;;20.61;57.65;96041.03;5033834;28;20746;-80
2023/09/06 08:04:50;;;;;;;5.45;4.95;;;;;;;20.75;57.93;96047.16;5030523;28;20297;-80
2023/09/06 08:07:16;;;;;;;4.15;3.83;;;;;;;20.76;54.81;96050.59;5025764;28;20197;-80
2023/09/06 08:09:41;;;;;;;4.80;4.30;;;;;;;20.88;54.51;96051.66;5021349;28;20559;-80
2023/09/06 08:12:07;;;;;;;4.60;3.63;;;;;;;21.13;55.28;96055.38;5017646;28;20203;-80
2023/09/06 08:14:33;;;;;;;5.38;4.75;;;;;;;21.04;56.66;96058.41;5037978;28;20179;-79
2023/09/06 08:16:58;;;;;;;6.05;4.65;;;;;;;21.19;55.91;96057.19;5042000;28;20182;-79
2023/09/06 08:19:23;;;;;;;6.70;4.60;;;;;;;21.34;54.32;96061.53;5027200;28;20664;-79
2023/09/06 08:21:48;;;;;;;4.65;4.15;;;;;;;21.34;53.21;96064.16;5031024;28;20255;-79
2023/09/06 08:24:17;;;;;;;5.15;4.60;;;;;;;21.48;55.88;96063.16;5051889;28;20243;-79
2023/09/06 08:26:42;;;;;;;4.85;4.35;;;;;;;21.11;56.92;96073.22;5041810;28;20179;-79
2023/09/06 08:29:07;;;;;;;4.60;4.20;;;;;;;21.35;56.00;96076.34;5027330;28;20617;-79
2023/09/06 08:31:33;;;;;;;5.38;4.10;;;;;;;21.09;56.69;96069.16;5044198;28;20195;-79
2023/09/06 08:33:59;;;;;;;7.05;4.43;;;;;;;21.20;57.04;96072.06;5042860;28;20174;-79
2023/09/06 08:36:24;;;;;;;6.05;5.32;;;;;;;21.14;58.20;96067.56;5017048;28;20186;-79
2023/09/06 08:38:49;;;;;;;6.30;4.35;;;;;;;21.44;56.58;96064.56;5037808;28;20236;-80
2023/09/06 08:41:15;;;;;;;6.70;4.50;;;;;;;21.52;56.40;96063.56;5024937;28;20197;-79
2023/09/06 08:43:43;;;;;;;5.53;4.40;;;;;;;21.49;56.59;96055.03;5043652;28;20205;-79
2023/09/06 08:46:17;;;;;;;6.45;5.03;;;;;;;21.75;56.55;96061.31;5020763;28;20189;-79
2023/09/06 08:48:43;;;;;;;4.88;4.38;;;;;;;21.67;56.16;96069.47;5029517;28;20190;-79
2023/09/06 08:51:11;;;;;;;6.85;4.57;;;;;;;21.57;56.10;96069.06;5035795;28;20288;-79
2023/09/06 08:53:38;;;;;;;5.35;4.85;;;;;;;21.75;56.55;96072.72;5024563;28;20256;-79
2023/09/06 08:56:05;;;;;;;5.60;4.47;;;;;;;22.00;55.94;96069.44;5045142;28;20285;-79
2023/09/06 08:58:30;;;;;;;8.07;4.88;;;;;;;22.02;55.10;96070.03;5048809;28;20186;-79
2023/09/06 09:00:56;;;;;;;6.50;4.85;;;;;;;21.99;55.35;96070.44;5019697;28;20670;-79
2023/09/06 09:03:22;;;;;;;5.50;4.82;;;;;;;22.16;55.15;96073.47;5048795;28;20216;-79
2023/09/06 09:05:47;;;;;;;6.57;4.43;;;;;;;22.16;55.00;96073.47;5027399;28;20286;-79
2023/09/06 09:08:12;;;;;;;4.65;4.22;;;;;;;22.48;54.95;96071.78;5023003;28;20198;-79
2023/09/06 09:10:39;;;;;;;5.03;4.57;;;;;;;22.47;55.05;96070.16;5018859;28;20190;-79
2023/09/06 09:13:04;;;;;;;5.70;4.50;;;;;;;22.78;53.40;96074.69;5032360;28;20613;-79
2023/09/06 09:15:31;;;;;;;6.50;4.53;;;;;;;22.96;52.24;96080.13;5037254;28;20179;-79
2023/09/06 09:17:58;;;;;;;5.05;4.53;;;;;;;22.98;53.12;96070.16;5042957;28;20244;-79
2023/09/06 09:20:25;;;;;;;5.10;4.40;;;;;;;23.21;52.77;96063.47;5044630;28;20202;-79
2023/09/06 09:22:51;;;;;;;6.07;4.78;;;;;;;23.22;52.13;96060.63;5048050;28;20256;-79
2023/09/06 09:25:23;;;;;;;5.90;4.60;;;;;;;23.26;53.11;96068.97;5051183;28;20186;-79
2023/09/06 09:27:51;;;;;;;7.93;4.65;;;;;;;23.09;52.55;96063.38;5030532;28;20255;-79
2023/09/06 09:30:18;;;;;;;6.18;4.53;;;;;;;23.46;51.98;96070.44;5043398;28;20221;-79
2023/09/06 09:32:43;;;;;;;5.13;4.25;;;;;;;23.36;50.86;96067.47;5045067;28;20205;-79
2023/09/06 09:35:12;;;;;;;4.88;4.47;;;;;;;23.48;50.98;96069.41;5020341;28;20188;-79
2023/09/06 09:37:44;;;;;;;5.68;5.15;;;;;;;23.70;50.64;96068.88;5033411;28;20186;-79
2023/09/06 09:40:20;;;;;;;5.68;4.65;;;;;;;23.80;50.07;96071.03;5045653;28;20189;-79
2023/09/06 09:42:56;;;;;;;6.53;4.53;;;;;;;23.78;49.03;96074.94;5040715;28;20273;-79
2023/09/06 09:45:23;;;;;;;4.80;4.35;;;;;;;23.77;49.72;96074.13;5045809;28;20641;-79
2023/09/06 09:47:49;;;;;;;7.65;4.63;;;;;;;23.90;49.71;96075.81;5019970;28;20190;-79
2023/09/06 09:50:16;;;;;;;5.57;4.50;;;;;;;23.98;48.75;96070.25;5034070;28;20265;-79
2023/09/06 09:52:44;;;;;;;4.82;4.32;;;;;;;24.07;49.18;96071.59;5037178;28;20208;-79
2023/09/06 09:55:12;;;;;;;5.50;3.97;;;;;;;23.81;48.66;96072.63;5026534;28;20637;-79
2023/09/06 09:57:38;;;;;;;4.25;3.90;;;;;;;24.09;48.44;96074.81;5037441;28;20281;-79
2023/09/06 10:00:07;;;;;;;5.32;4.07;;;;;;;24.12;47.05;96071.75;5032783;28;20186;-79
2023/09/06 10:02:32;;;;;;;6.35;4.25;;;;;;;24.27;47.58;96068.72;5036669;28;20213;-83
2023/09/06 10:05:00;;;;;;;8.50;4.45;;;;;;;24.20;46.77;96067.97;5040047;28;20209;-84
2023/09/06 10:07:26;;;;;;;5.82;4.50;;;;;;;24.33;46.39;96067.88;5046203;28;20214;-84
2023/09/06 10:09:51;;;;;;;5.57;4.00;;;;;;;24.22;47.10;96056.13;5032627;28;20186;-84
2023/09/06 10:12:17;;;;;;;5.57;4.55;;;;;;;23.94;45.90;96058.44;5027733;28;20563;-83
2023/09/06 10:14:42;;;;;;;6.88;4.20;;;;;;;23.73;46.14;96059.66;5034241;28;20223;-83
2023/09/06 10:17:09;;;;;;;4.60;4.20;;;;;;;24.20;46.63;96062.66;5042829;28;20227;-83
2023/09/06 10:19:36;;;;;;;6.72;4.30;;;;;;;24.37;47.21;96062.94;5030761;28;20182;-80
2023/09/06 10:22:02;;;;;;;7.05;4.25;;;;;;;24.45;45.58;96068.75;5027943;28;20202;-80
2023/09/06 10:24:32;;;;;;;5.05;4.53;;;;;;;24.20;45.19;96066.13;5051018;28;20249;-80
2023/09/06 10:26:58;;;;;;;8.10;4.65;;;;;;;24.34;46.37;96063.38;5044528;28;20198;-78
2023/09/06 10:29:24;;;;;;;7.45;4.43;;;;;;;24.58;46.51;96065.97;5038201;28;20959;-79
2023/09/06 10:31:51;;;;;;;6.70;4.65;;;;;;;24.61;46.35;96069.19;5034894;28;20202;-79
2023/09/06 10:34:20;;;;;;;7.50;5.18;;;;;;;24.57;45.15;96063.53;5027852;28;20598;-80
2023/09/06 10:36:54;;;;;;;5.30;4.80;;;;;;;24.73;46.74;96062.09;5021374;28;20182;-80
2023/09/06 10:39:21;;;;;;;5.63;4.85;;;;;;;24.40;45.92;96063.31;5038356;28;20185;-80
2023/09/06 10:42:09;;;;;;;5.75;4.72;;;;;;;24.67;47.29;96057.69;5034714;28;20559;-80
2023/09/06 10:44:56;;;;;;;7.90;4.63;;;;;;;24.75;46.42;96065.34;5050508;28;20321;-80
2023/09/06 10:47:35;;;;;;;5.78;4.68;;;;;;;24.63;45.79;96061.81;5052556;28;20181;-80
2023/09/06 10:50:14;;;;;;;11.18;5.25;;;;;;;24.64;46.69;96058.13;5038103;28;20745;-80
2023/09/06 10:52:53;;;;;;;7.07;5.13;;;;;;;24.94;46.63;96053.66;5041038;28;20251;-80
2023/09/06 10:55:25;;;;;;;8.10;5.13;;;;;;;25.07;45.47;96056.13;5041930;28;20178;-80
2023/09/06 10:58:00;;;;;;;5.68;4.70;;;;;;;25.07;45.61;96060.66;5040020;28;20190;-80
2023/09/06 11:00:30;;;;;;;6.70;5.25;;;;;;;24.63;46.31;96061.81;5045239;28;20185;-80
2023/09/06 11:03:08;;;;;;;6.97;5.10;;;;;;;24.71;46.61;96064.97;5038281;28;20217;-80
2023/09/06 11:05:35;;;;;;;7.80;4.80;;;;;;;24.97;45.52;96053.19;5045026;28;20189;-80
2023/09/06 11:08:02;;;;;;;9.00;5.13;;;;;;;24.69;46.63;96059.06;5046179;28;20249;-81
2023/09/06 11:10:28;;;;;;;7.18;5.20;;;;;;;24.73;46.67;96059.44;5025426;28;20221;-87
2023/09/06 11:12:57;;;;;;;6.15;5.07;;;;;;;25.02;46.98;96052.53;5037035;28;20683;-82
2023/09/06 11:15:24;;;;;;;7.80;5.22;;;;;;;25.00;46.72;96062.53;5023757;28;20204;-82
2023/09/06 11:17:49;;;;;;;8.52;5.40;;;;;;;24.94;46.84;96058.97;5045517;28;20260;-83
2023/09/06 11:20:16;;;;;;;8.68;5.30;;;;;;;24.59;46.85;96064.09;5032105;28;20861;-83
2023/09/06 11:22:52;;;;;;;8.45;5.10;;;;;;;24.72;45.95;96057.81;5035016;28;20706;-83
2023/09/06 11:25:19;;;;;;;7.15;5.28;;;;;;;24.89;45.14;96056.16;5036602;28;20187;-83
2023/09/06 11:27:45;;;;;;;7.15;5.05;;;;;;;24.78;46.01;96043.66;5023951;28;20186;-84
2023/09/06 11:30:15;;;;;;;7.45;5.22;;;;;;;24.73;45.50;96056.78;5028808;28;20209;-84
2023/09/06 11:32:44;;;;;;;6.85;5.30;;;;;;;24.66;45.91;96053.41;5049232;28;20661;-84